createdAt,value
2018-08-17T00:01:05.776Z,17.69
2018-08-17T00:01:57.967Z,17.66
2018-08-17T00:02:57.982Z,17.68
2018-08-17T00:04:05.792Z,17.69
2018-08-17T00:04:57.930Z,17.65
2018-08-17T00:05:57.910Z,17.68
2018-08-17T00:07:05.823Z,17.69
2018-08-17T00:07:57.924Z,17.60
2018-08-17T00:08:57.880Z,17.65
2018-08-17T00:10:05.865Z,17.52
2018-08-17T00:10:57.873Z,17.60
2018-08-17T00:11:57.839Z,17.60
2018-08-17T00:13:05.935Z,17.49
2018-08-17T00:13:57.835Z,17.52
2018-08-17T00:14:57.823Z,17.56
2018-08-17T00:16:05.435Z,17.52
2018-08-17T00:16:57.811Z,17.60
2018-08-17T00:17:57.814Z,17.56
2018-08-17T00:18:57.772Z,17.57
2018-08-17T00:19:57.768Z,17.54
2018-08-17T00:20:57.752Z,17.46
2018-08-17T00:22:05.471Z,17.52
2018-08-17T00:22:57.786Z,17.54
2018-08-17T00:23:57.721Z,17.42
2018-08-17T00:25:05.517Z,17.41
2018-08-17T00:25:57.697Z,17.39
2018-08-17T00:26:57.687Z,17.42
2018-08-17T00:28:07.054Z,17.39
2018-08-17T00:28:57.668Z,17.39
2018-08-17T00:29:57.646Z,17.44
2018-08-17T00:30:57.641Z,17.44
2018-08-17T00:31:57.631Z,17.35
2018-08-17T00:32:57.623Z,17.41
2018-08-17T00:34:07.089Z,17.34
2018-08-17T00:34:57.583Z,17.35
2018-08-17T00:35:57.579Z,17.35
2018-08-17T00:37:05.096Z,17.30
2018-08-17T00:37:57.550Z,17.32
2018-08-17T00:38:57.550Z,17.34
2018-08-17T00:40:05.658Z,17.30
2018-08-17T00:40:57.521Z,17.38
2018-08-17T00:41:57.512Z,17.38
2018-08-17T00:42:57.499Z,17.34
2018-08-17T00:43:57.488Z,17.34
2018-08-17T00:44:57.499Z,17.38
2018-08-17T00:46:05.169Z,17.38
2018-08-17T00:46:57.489Z,17.34
2018-08-17T00:47:57.488Z,17.38
2018-08-17T00:49:05.256Z,17.22
2018-08-17T00:49:57.428Z,17.19
2018-08-17T00:50:57.446Z,17.23
2018-08-17T00:52:06.774Z,17.16
2018-08-17T00:52:57.383Z,17.20
2018-08-17T00:53:57.386Z,17.23
2018-08-17T00:55:05.279Z,17.20
2018-08-17T00:55:57.365Z,17.22
2018-08-17T00:56:57.357Z,17.23
2018-08-17T00:58:06.828Z,17.17
2018-08-17T00:58:57.337Z,17.38
2018-08-17T00:59:57.327Z,17.35
2018-08-17T01:01:07.368Z,17.50
2018-08-17T01:01:57.292Z,17.60
2018-08-17T01:02:57.281Z,17.57
2018-08-17T01:04:04.856Z,17.56
2018-08-17T01:04:57.261Z,17.71
2018-08-17T01:05:57.287Z,17.59
2018-08-17T01:07:05.387Z,17.68
2018-08-17T01:07:57.234Z,17.76
2018-08-17T01:08:57.217Z,17.75
2018-08-17T01:10:05.927Z,17.76
2018-08-17T01:10:57.235Z,17.79
2018-08-17T01:11:57.187Z,17.80
2018-08-17T01:13:04.957Z,17.88
2018-08-17T01:13:57.157Z,17.91
2018-08-17T01:14:57.141Z,17.94
2018-08-17T01:16:07.513Z,17.95
2018-08-17T01:16:57.111Z,18.09
2018-08-17T01:17:57.100Z,18.12
2018-08-17T01:19:05.032Z,18.03
2018-08-17T01:19:57.096Z,18.12
2018-08-17T01:20:57.069Z,18.16
2018-08-17T01:21:57.085Z,18.23
2018-08-17T01:22:57.057Z,18.28
2018-08-17T01:23:57.040Z,18.27
2018-08-17T01:25:04.552Z,18.26
2018-08-17T01:25:57.018Z,18.26
2018-08-17T01:26:57.041Z,18.34
2018-08-17T01:27:56.995Z,18.34
2018-08-17T01:28:56.993Z,18.36
2018-08-17T01:29:56.970Z,18.39
2018-08-17T01:31:04.590Z,18.37
2018-08-17T01:31:56.984Z,18.45
2018-08-17T01:32:56.937Z,18.45
2018-08-17T01:34:06.143Z,18.36
2018-08-17T01:34:56.910Z,18.48
2018-08-17T01:35:56.917Z,18.41
2018-08-17T01:37:04.671Z,18.41
2018-08-17T01:37:56.889Z,18.41
2018-08-17T01:38:56.925Z,18.34
2018-08-17T01:39:56.873Z,18.31
2018-08-17T01:40:56.859Z,18.36
2018-08-17T01:41:56.853Z,18.33
2018-08-17T01:43:04.699Z,18.31
2018-08-17T01:43:56.857Z,18.31
2018-08-17T01:44:56.811Z,18.31
2018-08-17T01:45:56.800Z,18.30
2018-08-17T01:46:56.789Z,18.28
2018-08-17T01:47:56.794Z,18.27
2018-08-17T01:49:06.251Z,18.27
2018-08-17T01:49:56.758Z,18.28
2018-08-17T01:50:56.743Z,18.31
2018-08-17T01:51:56.754Z,18.28
2018-08-17T01:52:56.725Z,18.26
2018-08-17T01:53:56.746Z,18.28
2018-08-17T01:55:05.771Z,18.26
2018-08-17T01:55:56.691Z,18.12
2018-08-17T01:56:56.676Z,18.21
2018-08-17T01:57:56.671Z,18.05
2018-08-17T01:58:56.660Z,18.06
2018-08-17T01:59:56.673Z,18.13
2018-08-17T02:01:04.282Z,18.09
2018-08-17T02:01:56.617Z,18.06
2018-08-17T02:02:56.608Z,18.08
2018-08-17T02:03:56.594Z,18.06
2018-08-17T02:04:56.630Z,18.06
2018-08-17T02:05:56.584Z,18.05
2018-08-17T02:06:56.554Z,18.05
2018-08-17T02:07:56.548Z,18.05
2018-08-17T02:08:56.545Z,18.05
2018-08-17T02:10:06.344Z,18.09
2018-08-17T02:10:56.520Z,18.02
2018-08-17T02:11:56.532Z,18.02
2018-08-17T02:13:04.356Z,18.03
2018-08-17T02:13:56.488Z,18.06
2018-08-17T02:14:56.481Z,18.00
2018-08-17T02:15:56.488Z,18.05
2018-08-17T02:16:56.458Z,18.12
2018-08-17T02:17:56.443Z,17.97
2018-08-17T02:18:56.424Z,18.02
2018-08-17T02:19:56.418Z,18.05
2018-08-17T02:20:56.448Z,18.03
2018-08-17T02:22:05.932Z,18.08
2018-08-17T02:22:56.376Z,18.02
2018-08-17T02:23:56.382Z,18.11
2018-08-17T02:24:56.386Z,17.95
2018-08-17T02:25:56.403Z,17.90
2018-08-17T02:26:56.346Z,18.00
2018-08-17T02:28:03.950Z,17.93
2018-08-17T02:28:56.322Z,17.91
2018-08-17T02:29:56.316Z,17.88
2018-08-17T02:31:05.486Z,17.90
2018-08-17T02:31:56.289Z,17.97
2018-08-17T02:32:56.284Z,17.90
2018-08-17T02:33:56.265Z,17.88
2018-08-17T02:34:56.273Z,17.91
2018-08-17T02:35:56.284Z,17.80
2018-08-17T02:37:03.996Z,17.87
2018-08-17T02:37:56.229Z,17.94
2018-08-17T02:38:56.212Z,17.86
2018-08-17T02:40:04.030Z,17.97
2018-08-17T02:40:56.221Z,17.94
2018-08-17T02:41:56.185Z,17.94
2018-08-17T02:43:05.579Z,17.84
2018-08-17T02:43:56.158Z,17.90
2018-08-17T02:44:56.146Z,17.86
2018-08-17T02:45:56.156Z,17.97
2018-08-17T02:46:56.114Z,17.95
2018-08-17T02:47:56.130Z,17.90
2018-08-17T02:49:04.079Z,18.00
2018-08-17T02:49:56.080Z,18.00
2018-08-17T02:50:56.112Z,18.03
2018-08-17T02:52:03.608Z,18.05
2018-08-17T02:52:56.092Z,18.03
2018-08-17T02:53:56.033Z,18.13
2018-08-17T02:54:56.026Z,18.16
2018-08-17T02:55:56.007Z,18.18
2018-08-17T02:56:56.014Z,18.11
2018-08-17T02:57:56.042Z,18.24
2018-08-17T02:58:55.987Z,18.24
2018-08-17T02:59:55.993Z,18.28
2018-08-17T03:00:55.962Z,18.33
2018-08-17T03:01:55.964Z,18.30
2018-08-17T03:02:55.992Z,18.34
2018-08-17T03:03:55.928Z,18.30
2018-08-17T03:04:55.980Z,18.28
2018-08-17T03:05:55.918Z,18.33
2018-08-17T03:07:03.648Z,18.30
2018-08-17T03:07:55.884Z,18.31
2018-08-17T03:08:55.873Z,18.34
2018-08-17T03:09:55.908Z,18.33
2018-08-17T03:10:55.850Z,18.30
2018-08-17T03:11:55.843Z,18.34
2018-08-17T03:13:03.682Z,18.39
2018-08-17T03:13:55.808Z,18.34
2018-08-17T03:14:55.832Z,18.31
2018-08-17T03:16:03.722Z,18.26
2018-08-17T03:16:55.778Z,18.30
2018-08-17T03:17:55.770Z,18.30
2018-08-17T03:19:03.755Z,18.30
2018-08-17T03:19:55.785Z,18.30
2018-08-17T03:20:55.736Z,18.34
2018-08-17T03:21:55.721Z,18.36
2018-08-17T03:22:55.744Z,18.31
2018-08-17T03:23:55.706Z,18.36
2018-08-17T03:25:04.822Z,18.33
2018-08-17T03:25:55.672Z,18.37
2018-08-17T03:26:55.665Z,18.41
2018-08-17T03:27:55.652Z,18.42
2018-08-17T03:28:55.642Z,18.39
2018-08-17T03:29:55.671Z,18.52
2018-08-17T03:30:55.620Z,18.48
2018-08-17T03:31:55.620Z,18.48
2018-08-17T03:32:55.632Z,18.46
2018-08-17T03:34:03.327Z,18.48
2018-08-17T03:34:55.606Z,18.49
2018-08-17T03:35:55.570Z,18.49
2018-08-17T03:36:55.616Z,18.51
2018-08-17T03:37:55.608Z,18.41
2018-08-17T03:38:55.543Z,18.51
2018-08-17T03:39:55.535Z,18.46
2018-08-17T03:40:55.528Z,18.49
2018-08-17T03:41:55.578Z,18.45
2018-08-17T03:42:55.509Z,18.46
2018-08-17T03:43:55.484Z,18.42
2018-08-17T03:44:55.478Z,18.41
2018-08-17T03:45:55.461Z,18.46
2018-08-17T03:46:55.496Z,18.46
2018-08-17T03:47:55.461Z,18.39
2018-08-17T03:48:55.462Z,18.45
2018-08-17T03:49:55.416Z,18.46
2018-08-17T03:50:55.414Z,18.34
2018-08-17T03:51:55.465Z,18.49
2018-08-17T03:52:55.432Z,18.31
2018-08-17T03:53:55.393Z,18.39
2018-08-17T03:55:03.358Z,18.37
2018-08-17T03:55:55.353Z,18.45
2018-08-17T03:56:55.347Z,18.45
2018-08-17T03:57:55.355Z,18.46
2018-08-17T03:58:55.319Z,18.43
2018-08-17T03:59:55.322Z,18.42
2018-08-17T04:01:02.900Z,18.43
2018-08-17T04:01:55.310Z,18.39
2018-08-17T04:02:55.262Z,18.39
2018-08-17T04:03:55.262Z,18.31
2018-08-17T04:04:55.242Z,18.36
2018-08-17T04:05:55.241Z,18.41
2018-08-17T04:07:03.451Z,18.39
2018-08-17T04:07:55.205Z,18.33
2018-08-17T04:08:55.204Z,18.43
2018-08-17T04:09:55.192Z,18.39
2018-08-17T04:10:55.182Z,18.36
2018-08-17T04:11:55.196Z,18.42
2018-08-17T04:12:55.195Z,18.37
2018-08-17T04:13:55.166Z,18.37
2018-08-17T04:14:55.132Z,18.34
2018-08-17T04:15:55.136Z,18.31
2018-08-17T04:16:55.140Z,18.30
2018-08-17T04:17:55.134Z,18.34
2018-08-17T04:19:02.952Z,18.31
2018-08-17T04:19:55.081Z,18.33
2018-08-17T04:20:55.064Z,18.31
2018-08-17T04:21:55.098Z,18.28
2018-08-17T04:22:55.047Z,18.30
2018-08-17T04:23:55.067Z,18.36
2018-08-17T04:24:55.024Z,18.28
2018-08-17T04:25:55.012Z,18.31
2018-08-17T04:26:55.038Z,18.24
2018-08-17T04:28:02.995Z,18.30
2018-08-17T04:28:54.987Z,18.27
2018-08-17T04:29:54.992Z,18.23
2018-08-17T04:30:55.504Z,18.21
2018-08-17T04:31:55.015Z,18.19
2018-08-17T04:32:54.944Z,18.21
2018-08-17T04:33:54.935Z,18.24
2018-08-17T04:34:54.933Z,18.21
2018-08-17T04:35:54.908Z,18.19
2018-08-17T04:36:54.938Z,18.19
2018-08-17T04:37:54.894Z,18.23
2018-08-17T04:38:54.878Z,18.21
2018-08-17T04:40:02.565Z,18.27
2018-08-17T04:40:54.872Z,18.24
2018-08-17T04:41:54.886Z,18.27
2018-08-17T04:42:54.834Z,18.31
2018-08-17T04:43:54.852Z,18.36
2018-08-17T04:44:54.808Z,18.34
2018-08-17T04:45:54.786Z,18.34
2018-08-17T04:46:54.814Z,18.34
2018-08-17T04:47:54.824Z,18.36
2018-08-17T04:48:54.769Z,18.46
2018-08-17T04:49:54.762Z,18.46
2018-08-17T04:50:54.741Z,18.42
2018-08-17T04:52:05.082Z,18.51
2018-08-17T04:52:54.716Z,18.48
2018-08-17T04:53:54.710Z,18.60
2018-08-17T04:54:54.745Z,18.60
2018-08-17T04:55:54.694Z,18.55
2018-08-17T04:56:54.684Z,18.60
2018-08-17T04:57:54.689Z,18.58
2018-08-17T04:58:54.660Z,18.63
2018-08-17T04:59:54.703Z,18.74
2018-08-17T05:00:54.644Z,18.76
2018-08-17T05:01:54.629Z,18.73
2018-08-17T05:02:54.642Z,18.73
2018-08-17T05:04:05.127Z,18.71
2018-08-17T05:04:54.591Z,18.88
2018-08-17T05:05:54.580Z,18.88
2018-08-17T05:06:54.643Z,19.00
2018-08-17T05:07:54.564Z,18.98
2018-08-17T05:08:54.605Z,19.05
2018-08-17T05:09:54.547Z,19.09
2018-08-17T05:10:54.541Z,19.09
2018-08-17T05:11:54.533Z,19.16
2018-08-17T05:12:54.520Z,19.09
2018-08-17T05:13:54.545Z,19.11
2018-08-17T05:14:54.490Z,19.16
2018-08-17T05:16:02.163Z,19.15
2018-08-17T05:16:54.454Z,19.19
2018-08-17T05:17:54.454Z,19.29
2018-08-17T05:19:03.714Z,19.24
2018-08-17T05:19:54.430Z,19.37
2018-08-17T05:20:54.424Z,19.27
2018-08-17T05:21:54.422Z,19.35
2018-08-17T05:22:54.398Z,19.35
2018-08-17T05:23:54.380Z,19.44
2018-08-17T05:25:04.740Z,19.48
2018-08-17T05:25:54.404Z,19.52
2018-08-17T05:26:54.358Z,19.56
2018-08-17T05:27:54.330Z,19.52
2018-08-17T05:28:54.316Z,19.67
2018-08-17T05:29:54.330Z,19.67
2018-08-17T05:30:54.334Z,19.63
2018-08-17T05:31:54.337Z,19.77
2018-08-17T05:32:54.275Z,19.78
2018-08-17T05:33:54.274Z,19.84
2018-08-17T05:34:54.264Z,19.82
2018-08-17T05:35:54.321Z,19.84
2018-08-17T05:36:54.280Z,19.97
2018-08-17T05:37:54.216Z,19.97
2018-08-17T05:38:54.202Z,19.99
2018-08-17T05:40:01.739Z,20.03
2018-08-17T05:40:54.181Z,20.02
2018-08-17T05:41:54.208Z,20.07
2018-08-17T05:43:02.770Z,20.18
2018-08-17T05:43:54.153Z,20.24
2018-08-17T05:44:54.180Z,20.14
2018-08-17T05:46:01.811Z,20.21
2018-08-17T05:46:54.151Z,20.34
2018-08-17T05:47:54.111Z,20.34
2018-08-17T05:48:54.114Z,20.33
2018-08-17T05:49:54.101Z,20.36
2018-08-17T05:50:54.178Z,20.36
2018-08-17T05:51:54.095Z,20.50
2018-08-17T05:52:54.091Z,20.55
2018-08-17T05:53:54.042Z,20.73
2018-08-17T05:55:02.833Z,20.78
2018-08-17T05:55:54.023Z,20.89
2018-08-17T05:56:54.035Z,21.14
2018-08-17T05:57:54.057Z,21.33
2018-08-17T05:58:53.981Z,21.44
2018-08-17T05:59:53.989Z,21.59
2018-08-17T06:00:53.972Z,21.68
2018-08-17T06:01:53.957Z,21.69
2018-08-17T06:02:54.064Z,21.70
2018-08-17T06:04:01.893Z,21.72
2018-08-17T06:04:53.917Z,21.78
2018-08-17T06:05:53.903Z,21.78
2018-08-17T06:07:01.433Z,21.83
2018-08-17T06:07:53.915Z,21.91
2018-08-17T06:08:53.874Z,21.91
2018-08-17T06:10:01.441Z,22.03
2018-08-17T06:10:53.924Z,22.06
2018-08-17T06:11:53.836Z,22.15
2018-08-17T06:12:53.840Z,22.12
2018-08-17T06:13:53.811Z,22.25
2018-08-17T06:14:53.825Z,22.28
2018-08-17T06:15:53.783Z,22.30
2018-08-17T06:16:53.782Z,22.34
2018-08-17T06:17:53.806Z,22.56
2018-08-17T06:19:01.482Z,22.70
2018-08-17T06:19:53.742Z,23.02
2018-08-17T06:20:53.728Z,23.47
2018-08-17T06:22:01.529Z,23.69
2018-08-17T06:22:53.753Z,24.21
2018-08-17T06:23:53.705Z,24.78
2018-08-17T06:24:53.724Z,25.16
2018-08-17T06:25:53.701Z,25.62
2018-08-17T06:26:53.684Z,25.98
2018-08-17T06:28:01.575Z,26.19
2018-08-17T06:28:53.655Z,26.48
2018-08-17T06:29:53.674Z,26.55
2018-08-17T06:30:53.631Z,26.68
2018-08-17T06:31:53.617Z,26.74
2018-08-17T06:32:53.658Z,26.70
2018-08-17T06:33:53.593Z,26.93
2018-08-17T06:34:53.584Z,26.93
2018-08-17T06:35:53.574Z,27.05
2018-08-17T06:36:53.552Z,27.19
2018-08-17T06:37:53.584Z,27.34
2018-08-17T06:38:53.528Z,27.30
2018-08-17T06:40:02.085Z,27.34
2018-08-17T06:40:53.513Z,27.40
2018-08-17T06:41:53.521Z,27.61
2018-08-17T06:42:53.478Z,27.85
2018-08-17T06:43:53.523Z,28.22
2018-08-17T06:44:53.463Z,28.25
2018-08-17T06:46:01.125Z,28.25
2018-08-17T06:46:53.439Z,28.30
2018-08-17T06:47:56.125Z,28.22
2018-08-17T06:49:03.184Z,27.75
2018-08-17T06:49:53.407Z,28.10
2018-08-17T06:50:53.526Z,28.08
2018-08-17T06:51:53.397Z,28.23
2018-08-17T06:52:53.383Z,28.50
2018-08-17T06:53:53.417Z,28.59
2018-08-17T06:55:01.176Z,28.70
2018-08-17T06:55:53.432Z,28.67
2018-08-17T06:56:53.335Z,28.55
2018-08-17T06:57:53.331Z,28.56
2018-08-17T06:58:53.363Z,28.41
2018-08-17T06:59:53.302Z,28.35
2018-08-17T07:00:53.294Z,28.35
2018-08-17T07:01:53.292Z,28.28
2018-08-17T07:02:53.318Z,28.47
2018-08-17T07:03:53.275Z,28.57
2018-08-17T07:04:53.276Z,28.67
2018-08-17T07:05:53.243Z,28.77
2018-08-17T07:06:53.277Z,28.89
2018-08-17T07:07:53.408Z,29.02
2018-08-17T07:08:53.377Z,28.86
2018-08-17T07:09:53.201Z,28.67
2018-08-17T07:10:53.184Z,28.41
2018-08-17T07:11:53.242Z,28.40
2018-08-17T07:13:00.746Z,28.01
2018-08-17T07:13:53.156Z,28.03
2018-08-17T07:14:53.146Z,28.09
2018-08-17T07:15:53.132Z,28.20
2018-08-17T07:16:53.154Z,28.41
2018-08-17T07:17:53.110Z,28.46
2018-08-17T07:19:00.750Z,28.65
2018-08-17T07:19:53.116Z,28.64
2018-08-17T07:20:53.076Z,28.78
2018-08-17T07:21:53.080Z,29.03
2018-08-17T07:22:53.055Z,29.25
2018-08-17T07:23:53.056Z,29.30
2018-08-17T07:25:01.305Z,29.49
2018-08-17T07:25:53.015Z,29.28
2018-08-17T07:26:53.007Z,29.09
2018-08-17T07:28:00.841Z,29.16
2018-08-17T07:28:52.979Z,28.96
2018-08-17T07:29:53.015Z,28.92
2018-08-17T07:31:00.849Z,28.72
2018-08-17T07:31:52.944Z,28.23
2018-08-17T07:32:52.943Z,27.73
2018-08-17T07:34:02.415Z,27.64
2018-08-17T07:34:52.957Z,27.30
2018-08-17T07:35:53.047Z,27.00
2018-08-17T07:36:52.921Z,26.76
2018-08-17T07:37:52.889Z,26.53
2018-08-17T07:38:52.869Z,26.22
2018-08-17T07:39:52.923Z,25.78
2018-08-17T07:40:52.883Z,25.80
2018-08-17T07:41:52.853Z,25.78
2018-08-17T07:43:00.414Z,25.78
2018-08-17T07:43:52.817Z,25.74
2018-08-17T07:44:52.900Z,25.86
2018-08-17T07:46:01.977Z,25.89
2018-08-17T07:46:52.788Z,25.86
2018-08-17T07:47:52.812Z,25.95
2018-08-17T07:49:02.025Z,26.08
2018-08-17T07:49:52.760Z,26.18
2018-08-17T07:50:52.745Z,26.30
2018-08-17T07:51:52.756Z,26.81
2018-08-17T07:52:52.778Z,26.82
2018-08-17T07:53:52.726Z,26.46
2018-08-17T07:55:00.536Z,26.29
2018-08-17T07:55:52.692Z,26.16
2018-08-17T07:56:52.683Z,26.11
2018-08-17T07:57:52.721Z,25.91
2018-08-17T07:58:52.676Z,25.78
2018-08-17T07:59:52.651Z,25.74
2018-08-17T08:00:52.667Z,25.88
2018-08-17T08:01:52.632Z,25.80
2018-08-17T08:02:52.662Z,25.68
2018-08-17T08:03:52.626Z,25.83
2018-08-17T08:04:52.641Z,25.73
2018-08-17T08:05:52.589Z,25.59
2018-08-17T08:06:52.584Z,25.88
2018-08-17T08:07:52.566Z,26.07
2018-08-17T08:08:52.600Z,26.15
2018-08-17T08:09:52.542Z,26.22
2018-08-17T08:10:52.542Z,26.15
2018-08-17T08:11:52.568Z,26.13
2018-08-17T08:12:52.525Z,25.88
2018-08-17T08:13:52.507Z,25.85
2018-08-17T08:14:52.508Z,25.46
2018-08-17T08:16:00.050Z,25.51
2018-08-17T08:16:52.491Z,25.58
2018-08-17T08:17:52.446Z,25.61
2018-08-17T08:19:00.078Z,25.66
2018-08-17T08:19:52.428Z,25.58
2018-08-17T08:20:52.416Z,25.51
2018-08-17T08:22:01.637Z,25.51
2018-08-17T08:22:52.500Z,25.55
2018-08-17T08:23:52.385Z,25.39
2018-08-17T08:25:00.138Z,25.31
2018-08-17T08:25:52.406Z,25.30
2018-08-17T08:26:52.380Z,25.34
2018-08-17T08:28:00.160Z,25.34
2018-08-17T08:28:52.326Z,25.25
2018-08-17T08:29:52.311Z,25.22
2018-08-17T08:30:52.339Z,25.18
2018-08-17T08:31:52.404Z,24.85
2018-08-17T08:32:52.281Z,24.84
2018-08-17T08:34:00.220Z,24.85
2018-08-17T08:34:52.261Z,24.68
2018-08-17T08:35:52.266Z,24.82
2018-08-17T08:37:01.776Z,24.68
2018-08-17T08:37:52.240Z,24.81
2018-08-17T08:38:52.229Z,24.84
2018-08-17T08:39:59.891Z,24.85
2018-08-17T08:40:52.207Z,24.93
2018-08-17T08:41:52.189Z,24.97
2018-08-17T08:43:01.340Z,24.89
2018-08-17T08:43:52.301Z,25.04
2018-08-17T08:44:52.157Z,25.16
2018-08-17T08:45:59.967Z,25.24
2018-08-17T08:46:52.133Z,25.24
2018-08-17T08:47:52.125Z,25.26
2018-08-17T08:49:00.428Z,25.22
2018-08-17T08:49:52.136Z,25.26
2018-08-17T08:50:52.127Z,25.37
2018-08-17T08:51:59.941Z,25.39
2018-08-17T08:52:52.066Z,25.51
2018-08-17T08:53:52.090Z,25.49
2018-08-17T08:55:01.494Z,25.33
2018-08-17T08:55:52.046Z,25.34
2018-08-17T08:56:52.019Z,25.49
2018-08-17T08:57:59.998Z,25.74
2018-08-17T08:58:51.987Z,25.70
2018-08-17T08:59:51.990Z,25.51
2018-08-17T09:01:01.066Z,25.51
2018-08-17T09:01:52.104Z,25.37
2018-08-17T09:02:51.957Z,25.26
2018-08-17T09:03:59.578Z,25.37
2018-08-17T09:04:51.920Z,25.51
2018-08-17T09:05:51.948Z,25.70
2018-08-17T09:06:59.615Z,25.73
2018-08-17T09:07:51.897Z,25.96
2018-08-17T09:08:51.892Z,26.04
2018-08-17T09:10:01.181Z,26.22
2018-08-17T09:10:51.856Z,26.26
2018-08-17T09:11:51.861Z,26.45
2018-08-17T09:12:59.671Z,26.63
2018-08-17T09:13:51.889Z,26.86
2018-08-17T09:14:51.842Z,27.00
2018-08-17T09:15:59.716Z,27.34
2018-08-17T09:16:51.835Z,27.38
2018-08-17T09:17:51.802Z,27.47
2018-08-17T09:18:59.760Z,27.19
2018-08-17T09:19:51.822Z,27.07
2018-08-17T09:20:51.796Z,27.13
2018-08-17T09:21:59.296Z,27.22
2018-08-17T09:22:51.735Z,27.03
2018-08-17T09:23:51.720Z,26.74
2018-08-17T09:25:00.856Z,26.64
2018-08-17T09:25:51.707Z,26.45
2018-08-17T09:26:51.694Z,26.33
2018-08-17T09:27:51.669Z,26.30
2018-08-17T09:28:51.665Z,26.27
2018-08-17T09:29:51.693Z,26.23
2018-08-17T09:31:00.861Z,26.24
2018-08-17T09:31:51.644Z,26.18
2018-08-17T09:32:51.615Z,26.37
2018-08-17T09:33:59.394Z,26.42
2018-08-17T09:34:51.611Z,26.31
2018-08-17T09:35:51.593Z,25.99
2018-08-17T09:36:51.626Z,25.88
2018-08-17T09:37:51.580Z,25.88
2018-08-17T09:38:51.603Z,25.88
2018-08-17T09:39:59.439Z,25.85
2018-08-17T09:40:51.549Z,25.89
2018-08-17T09:41:51.773Z,26.01
2018-08-17T09:42:59.545Z,25.95
2018-08-17T09:43:51.508Z,26.11
2018-08-17T09:44:51.544Z,26.39
2018-08-17T09:45:59.498Z,26.53
2018-08-17T09:46:51.526Z,26.36
2018-08-17T09:47:51.468Z,26.10
2018-08-17T09:48:59.026Z,26.29
2018-08-17T09:49:51.440Z,26.74
2018-08-17T09:50:51.431Z,26.46
2018-08-17T09:51:51.527Z,26.24
2018-08-17T09:52:51.415Z,26.06
2018-08-17T09:53:51.400Z,26.10
2018-08-17T09:54:51.388Z,26.08
2018-08-17T09:55:51.429Z,26.13
2018-08-17T09:56:51.372Z,26.26
2018-08-17T09:57:51.390Z,26.41
2018-08-17T09:58:51.336Z,26.68
2018-08-17T09:59:51.323Z,26.76
2018-08-17T10:00:51.360Z,27.00
2018-08-17T10:01:51.311Z,27.41
2018-08-17T10:02:51.424Z,27.86
2018-08-17T10:03:51.341Z,28.50
2018-08-17T10:04:52.210Z,29.98
2018-08-17T10:05:51.504Z,31.14
2018-08-17T10:06:51.248Z,31.51
2018-08-17T10:07:51.248Z,31.72
2018-08-17T10:08:51.232Z,32.23
2018-08-17T10:09:51.247Z,31.11
2018-08-17T10:10:51.221Z,30.14
2018-08-17T10:11:51.192Z,29.35
2018-08-17T10:12:51.191Z,28.83
2018-08-17T10:13:51.212Z,28.64
2018-08-17T10:14:51.220Z,29.43
2018-08-17T10:15:51.255Z,30.59
2018-08-17T10:16:51.170Z,31.50
2018-08-17T10:17:51.190Z,31.29
2018-08-17T10:18:51.124Z,31.48
2018-08-17T10:19:51.188Z,30.91
2018-08-17T10:20:51.269Z,30.26
2018-08-17T10:21:51.577Z,29.94
2018-08-17T10:22:51.109Z,30.40
2018-08-17T10:23:51.078Z,30.63
2018-08-17T10:24:51.130Z,30.44
2018-08-17T10:25:51.056Z,30.24
2018-08-17T10:26:51.043Z,29.42
2018-08-17T10:27:51.041Z,29.02
2018-08-17T10:28:51.042Z,28.56
2018-08-17T10:29:51.053Z,28.28
2018-08-17T10:30:51.035Z,28.64
2018-08-17T10:31:50.999Z,28.40
2018-08-17T10:32:51.011Z,28.31
2018-08-17T10:33:58.644Z,28.20
2018-08-17T10:34:50.981Z,28.00
2018-08-17T10:35:50.995Z,27.94
2018-08-17T10:36:50.942Z,27.79
2018-08-17T10:37:50.943Z,27.82
2018-08-17T10:38:50.968Z,28.09
2018-08-17T10:39:58.602Z,28.13
2018-08-17T10:40:51.022Z,28.13
2018-08-17T10:41:50.900Z,28.28
2018-08-17T10:42:59.638Z,28.38
2018-08-17T10:43:50.886Z,28.13
2018-08-17T10:44:50.894Z,27.57
2018-08-17T10:45:50.846Z,27.55
2018-08-17T10:46:50.833Z,27.50
2018-08-17T10:47:50.827Z,27.52
2018-08-17T10:48:59.361Z,27.53
2018-08-17T10:49:50.802Z,27.26
2018-08-17T10:50:50.824Z,27.30
2018-08-17T10:51:58.678Z,27.40
2018-08-17T10:52:50.760Z,27.40
2018-08-17T10:53:50.752Z,27.40
2018-08-17T10:54:58.709Z,27.44
2018-08-17T10:55:50.754Z,27.78
2018-08-17T10:56:50.719Z,28.30
2018-08-17T10:57:50.704Z,29.81
2018-08-17T10:58:50.691Z,30.27
2018-08-17T10:59:50.685Z,30.46
2018-08-17T11:00:50.753Z,30.14
2018-08-17T11:01:50.677Z,29.77
2018-08-17T11:02:50.679Z,30.44
2018-08-17T11:03:58.249Z,31.14
2018-08-17T11:04:50.641Z,32.02
2018-08-17T11:05:50.653Z,32.82
2018-08-17T11:06:59.816Z,33.23
2018-08-17T11:07:50.605Z,33.53
2018-08-17T11:08:50.596Z,33.31
2018-08-17T11:09:50.586Z,33.73
2018-08-17T11:10:50.573Z,34.07
2018-08-17T11:11:50.603Z,33.44
2018-08-17T11:12:58.330Z,31.72
2018-08-17T11:13:50.530Z,30.95
2018-08-17T11:14:50.568Z,30.38
2018-08-17T11:15:50.534Z,29.83
2018-08-17T11:16:50.647Z,29.50
2018-08-17T11:17:50.518Z,29.07
2018-08-17T11:18:58.368Z,28.80
2018-08-17T11:19:50.494Z,28.40
2018-08-17T11:20:50.525Z,28.20
2018-08-17T11:21:50.464Z,28.03
2018-08-17T11:22:50.518Z,27.91
2018-08-17T11:23:50.442Z,27.81
2018-08-17T11:24:50.430Z,27.76
2018-08-17T11:25:50.508Z,27.66
2018-08-17T11:26:50.440Z,27.66
2018-08-17T11:27:50.410Z,29.47
2018-08-17T11:28:50.414Z,30.31
2018-08-17T11:29:50.432Z,29.35
2018-08-17T11:30:50.404Z,28.50
2018-08-17T11:31:50.411Z,28.22
2018-08-17T11:32:50.350Z,27.91
2018-08-17T11:33:50.356Z,27.81
2018-08-17T11:34:50.331Z,27.93
2018-08-17T11:35:50.315Z,27.71
2018-08-17T11:36:50.327Z,27.40
2018-08-17T11:37:50.308Z,27.16
2018-08-17T11:38:50.284Z,26.97
2018-08-17T11:39:50.288Z,26.83
2018-08-17T11:40:50.294Z,26.78
2018-08-17T11:41:50.249Z,26.71
2018-08-17T11:42:50.241Z,26.86
2018-08-17T11:43:50.266Z,27.10
2018-08-17T11:44:50.252Z,27.76
2018-08-17T11:45:50.227Z,27.93
2018-08-17T11:46:50.183Z,28.10
2018-08-17T11:47:50.198Z,28.43
2018-08-17T11:48:50.175Z,28.43
2018-08-17T11:49:50.154Z,28.94
2018-08-17T11:50:50.201Z,29.21
2018-08-17T11:51:50.135Z,30.01
2018-08-17T11:52:50.184Z,30.29
2018-08-17T11:53:50.148Z,29.95
2018-08-17T11:54:50.090Z,29.71
2018-08-17T11:55:50.128Z,29.42
2018-08-17T11:56:50.160Z,30.14
2018-08-17T11:57:50.078Z,29.99
2018-08-17T11:58:50.097Z,31.28
2018-08-17T11:59:50.166Z,32.08
2018-08-17T12:00:50.065Z,32.75
2018-08-17T12:01:50.053Z,33.20
2018-08-17T12:02:50.025Z,32.42
2018-08-17T12:03:50.037Z,31.85
2018-08-17T12:04:49.988Z,31.90
2018-08-17T12:05:49.985Z,31.90
2018-08-17T12:06:50.088Z,32.60
2018-08-17T12:07:49.962Z,32.78
2018-08-17T12:08:49.975Z,32.30
2018-08-17T12:09:49.940Z,32.12
2018-08-17T12:10:49.929Z,31.02
2018-08-17T12:11:49.921Z,29.86
2018-08-17T12:12:49.939Z,29.00
2018-08-17T12:13:49.924Z,28.89
2018-08-17T12:14:49.897Z,29.42
2018-08-17T12:15:49.879Z,29.02
2018-08-17T12:16:49.868Z,29.40
2018-08-17T12:17:49.898Z,29.37
2018-08-17T12:18:49.927Z,30.76
2018-08-17T12:19:49.848Z,31.17
2018-08-17T12:20:49.855Z,31.64
2018-08-17T12:21:49.825Z,31.93
2018-08-17T12:22:49.859Z,32.86
2018-08-17T12:23:49.838Z,33.53
2018-08-17T12:24:49.973Z,33.61
2018-08-17T12:25:49.785Z,33.57
2018-08-17T12:26:49.788Z,32.75
2018-08-17T12:27:49.768Z,31.93
2018-08-17T12:28:49.808Z,32.51
2018-08-17T12:29:49.759Z,32.07
2018-08-17T12:30:49.728Z,31.78
2018-08-17T12:31:49.722Z,31.63
2018-08-17T12:32:49.712Z,32.07
2018-08-17T12:33:49.750Z,30.96
2018-08-17T12:34:49.684Z,30.36
2018-08-17T12:35:49.688Z,29.94
2018-08-17T12:36:49.664Z,29.86
2018-08-17T12:37:49.662Z,30.05
2018-08-17T12:38:49.679Z,29.67
2018-08-17T12:39:49.664Z,29.10
2018-08-17T12:40:49.627Z,29.02
2018-08-17T12:41:49.617Z,28.60
2018-08-17T12:42:49.608Z,28.28
2018-08-17T12:43:49.604Z,28.22
2018-08-17T12:44:49.616Z,28.06
2018-08-17T12:45:49.574Z,27.75
2018-08-17T12:46:49.556Z,27.75
2018-08-17T12:47:49.574Z,28.12
2018-08-17T12:48:58.397Z,28.33
2018-08-17T12:49:49.563Z,28.06
2018-08-17T12:50:49.528Z,27.97
2018-08-17T12:51:58.963Z,28.01
2018-08-17T12:52:49.485Z,28.09